sensor_id;sensor_type;location;lat;lon;timestamp;P1;durP1;ratioP1;P2;durP2;ratioP2
6135;SDS011;24008;42.664;23.372;2024-02-21T00:02:05;10.90;;;7.70;;
6135;SDS011;24008;42.664;23.372;2024-02-21T00:04:33;11.37;;;7.70;;
6135;SDS011;24008;42.664;23.372;2024-02-21T00:07:00;11.63;;;7.77;;
6135;SDS011;24008;42.664;23.372;2024-02-21T00:09:27;11.93;;;8.07;;
6135;SDS011;24008;42.664;23.372;2024-02-21T00:11:53;11.37;;;7.97;;
6135;SDS011;24008;42.664;23.372;2024-02-21T00:14:20;10.87;;;7.83;;
6135;SDS011;24008;42.664;23.372;2024-02-21T00:16:47;9.73;;;7.40;;
6135;SDS011;24008;42.664;23.372;2024-02-21T00:19:14;10.70;;;7.73;;
6135;SDS011;24008;42.664;23.372;2024-02-21T00:21:42;9.80;;;7.13;;
6135;SDS011;24008;42.664;23.372;2024-02-21T00:24:09;11.43;;;7.57;;
6135;SDS011;24008;42.664;23.372;2024-02-21T00:26:36;10.23;;;7.33;;
6135;SDS011;24008;42.664;23.372;2024-02-21T00:29:03;11.13;;;7.53;;
6135;SDS011;24008;42.664;23.372;2024-02-21T00:31:30;12.03;;;7.60;;
6135;SDS011;24008;42.664;23.372;2024-02-21T00:33:57;10.63;;;7.80;;
6135;SDS011;24008;42.664;23.372;2024-02-21T00:36:24;10.70;;;7.50;;
6135;SDS011;24008;42.664;23.372;2024-02-21T00:38:52;12.63;;;8.23;;
6135;SDS011;24008;42.664;23.372;2024-02-21T00:41:18;11.30;;;8.23;;
6135;SDS011;24008;42.664;23.372;2024-02-21T00:43:45;11.50;;;8.13;;
6135;SDS011;24008;42.664;23.372;2024-02-21T00:46:13;10.37;;;7.80;;
6135;SDS011;24008;42.664;23.372;2024-02-21T00:48:40;10.50;;;7.30;;
6135;SDS011;24008;42.664;23.372;2024-02-21T00:51:07;10.77;;;7.50;;
6135;SDS011;24008;42.664;23.372;2024-02-21T00:53:33;9.77;;;6.83;;
6135;SDS011;24008;42.664;23.372;2024-02-21T00:56:05;10.37;;;7.10;;
6135;SDS011;24008;42.664;23.372;2024-02-21T00:58:32;9.67;;;7.03;;
6135;SDS011;24008;42.664;23.372;2024-02-21T01:00:59;9.43;;;6.67;;
6135;SDS011;24008;42.664;23.372;2024-02-21T01:03:26;9.70;;;7.03;;
6135;SDS011;24008;42.664;23.372;2024-02-21T01:05:53;9.63;;;7.33;;
6135;SDS011;24008;42.664;23.372;2024-02-21T01:08:20;10.33;;;7.57;;
6135;SDS011;24008;42.664;23.372;2024-02-21T01:10:46;8.67;;;6.23;;
6135;SDS011;24008;42.664;23.372;2024-02-21T01:13:14;9.07;;;6.47;;
6135;SDS011;24008;42.664;23.372;2024-02-21T01:15:41;9.80;;;6.67;;
6135;SDS011;24008;42.664;23.372;2024-02-21T01:18:08;10.00;;;6.67;;
6135;SDS011;24008;42.664;23.372;2024-02-21T01:20:34;11.17;;;7.40;;
6135;SDS011;24008;42.664;23.372;2024-02-21T01:23:01;9.07;;;6.53;;
6135;SDS011;24008;42.664;23.372;2024-02-21T01:25:28;10.37;;;7.10;;
6135;SDS011;24008;42.664;23.372;2024-02-21T01:27:54;8.93;;;6.97;;
6135;SDS011;24008;42.664;23.372;2024-02-21T01:30:22;12.23;;;7.30;;
6135;SDS011;24008;42.664;23.372;2024-02-21T01:32:49;9.70;;;6.97;;
6135;SDS011;24008;42.664;23.372;2024-02-21T01:35:16;11.27;;;7.53;;
6135;SDS011;24008;42.664;23.372;2024-02-21T01:37:43;11.00;;;7.53;;
6135;SDS011;24008;42.664;23.372;2024-02-21T01:40:10;9.50;;;6.70;;
6135;SDS011;24008;42.664;23.372;2024-02-21T01:42:38;11.77;;;7.40;;
6135;SDS011;24008;42.664;23.372;2024-02-21T01:45:06;11.03;;;8.13;;
6135;SDS011;24008;42.664;23.372;2024-02-21T01:47:34;10.73;;;7.47;;
6135;SDS011;24008;42.664;23.372;2024-02-21T01:50:01;10.40;;;7.73;;
6135;SDS011;24008;42.664;23.372;2024-02-21T01:52:28;11.63;;;8.30;;
6135;SDS011;24008;42.664;23.372;2024-02-21T01:54:56;11.33;;;8.00;;
6135;SDS011;24008;42.664;23.372;2024-02-21T01:57:24;11.13;;;7.80;;
6135;SDS011;24008;42.664;23.372;2024-02-21T01:59:51;11.83;;;8.43;;
6135;SDS011;24008;42.664;23.372;2024-02-21T02:02:18;11.10;;;7.63;;
6135;SDS011;24008;42.664;23.372;2024-02-21T02:04:46;12.13;;;8.27;;
6135;SDS011;24008;42.664;23.372;2024-02-21T02:07:13;12.50;;;8.13;;
6135;SDS011;24008;42.664;23.372;2024-02-21T02:09:40;10.90;;;7.80;;
6135;SDS011;24008;42.664;23.372;2024-02-21T02:12:06;10.47;;;7.50;;
6135;SDS011;24008;42.664;23.372;2024-02-21T02:14:34;12.03;;;8.47;;
6135;SDS011;24008;42.664;23.372;2024-02-21T02:17:00;11.50;;;7.90;;
6135;SDS011;24008;42.664;23.372;2024-02-21T02:19:27;12.67;;;8.87;;
6135;SDS011;24008;42.664;23.372;2024-02-21T02:21:56;13.30;;;8.70;;
6135;SDS011;24008;42.664;23.372;2024-02-21T02:24:34;13.57;;;9.00;;
6135;SDS011;24008;42.664;23.372;2024-02-21T02:27:01;13.50;;;9.10;;
6135;SDS011;24008;42.664;23.372;2024-02-21T02:29:27;13.70;;;9.00;;
6135;SDS011;24008;42.664;23.372;2024-02-21T02:31:54;14.60;;;9.90;;
6135;SDS011;24008;42.664;23.372;2024-02-21T02:34:21;16.57;;;10.40;;
6135;SDS011;24008;42.664;23.372;2024-02-21T02:36:47;15.53;;;10.40;;
6135;SDS011;24008;42.664;23.372;2024-02-21T02:39:14;17.03;;;10.37;;
6135;SDS011;24008;42.664;23.372;2024-02-21T02:41:42;14.60;;;10.33;;
6135;SDS011;24008;42.664;23.372;2024-02-21T02:44:09;14.47;;;9.80;;
6135;SDS011;24008;42.664;23.372;2024-02-21T02:46:35;15.47;;;10.77;;
6135;SDS011;24008;42.664;23.372;2024-02-21T02:49:02;16.43;;;10.63;;
6135;SDS011;24008;42.664;23.372;2024-02-21T02:51:29;17.70;;;10.87;;
6135;SDS011;24008;42.664;23.372;2024-02-21T02:53:55;18.07;;;11.17;;
6135;SDS011;24008;42.664;23.372;2024-02-21T02:56:22;18.17;;;11.30;;
6135;SDS011;24008;42.664;23.372;2024-02-21T02:58:50;18.73;;;11.27;;
6135;SDS011;24008;42.664;23.372;2024-02-21T03:01:17;18.53;;;11.27;;
6135;SDS011;24008;42.664;23.372;2024-02-21T03:03:44;15.80;;;10.80;;
6135;SDS011;24008;42.664;23.372;2024-02-21T03:06:12;19.80;;;12.50;;
6135;SDS011;24008;42.664;23.372;2024-02-21T03:08:39;20.00;;;12.67;;
6135;SDS011;24008;42.664;23.372;2024-02-21T03:11:05;20.93;;;12.20;;
6135;SDS011;24008;42.664;23.372;2024-02-21T03:13:33;20.37;;;12.93;;
6135;SDS011;24008;42.664;23.372;2024-02-21T03:16:01;17.43;;;11.27;;
6135;SDS011;24008;42.664;23.372;2024-02-21T03:18:28;19.50;;;12.20;;
6135;SDS011;24008;42.664;23.372;2024-02-21T03:20:55;17.57;;;11.93;;
6135;SDS011;24008;42.664;23.372;2024-02-21T03:23:21;18.40;;;11.90;;
6135;SDS011;24008;42.664;23.372;2024-02-21T03:25:48;18.63;;;12.03;;
6135;SDS011;24008;42.664;23.372;2024-02-21T03:28:15;20.17;;;11.80;;
6135;SDS011;24008;42.664;23.372;2024-02-21T03:30:42;18.63;;;11.93;;
6135;SDS011;24008;42.664;23.372;2024-02-21T03:33:10;17.73;;;12.10;;
6135;SDS011;24008;42.664;23.372;2024-02-21T03:35:37;18.30;;;11.80;;
6135;SDS011;24008;42.664;23.372;2024-02-21T03:38:04;20.40;;;12.83;;
6135;SDS011;24008;42.664;23.372;2024-02-21T03:40:30;19.33;;;12.10;;
6135;SDS011;24008;42.664;23.372;2024-02-21T03:42:57;18.30;;;12.03;;
6135;SDS011;24008;42.664;23.372;2024-02-21T03:45:24;19.80;;;11.60;;
6135;SDS011;24008;42.664;23.372;2024-02-21T03:47:50;17.40;;;11.87;;
6135;SDS011;24008;42.664;23.372;2024-02-21T03:50:18;20.57;;;13.00;;
6135;SDS011;24008;42.664;23.372;2024-02-21T03:52:45;19.27;;;12.50;;
6135;SDS011;24008;42.664;23.372;2024-02-21T03:55:12;19.90;;;12.80;;
6135;SDS011;24008;42.664;23.372;2024-02-21T03:57:38;21.37;;;13.23;;
6135;SDS011;24008;42.664;23.372;2024-02-21T04:00:05;20.53;;;12.77;;
6135;SDS011;24008;42.664;23.372;2024-02-21T04:02:36;20.60;;;13.07;;
6135;SDS011;24008;42.664;23.372;2024-02-21T04:05:03;20.90;;;13.30;;
6135;SDS011;24008;42.664;23.372;2024-02-21T04:07:31;20.37;;;13.20;;
6135;SDS011;24008;42.664;23.372;2024-02-21T04:09:58;20.93;;;13.13;;
6135;SDS011;24008;42.664;23.372;2024-02-21T04:12:24;21.87;;;13.13;;
6135;SDS011;24008;42.664;23.372;2024-02-21T04:14:51;22.60;;;13.87;;
6135;SDS011;24008;42.664;23.372;2024-02-21T04:17:17;22.97;;;14.43;;
6135;SDS011;24008;42.664;23.372;2024-02-21T04:19:44;22.50;;;13.83;;
6135;SDS011;24008;42.664;23.372;2024-02-21T04:22:11;21.33;;;13.27;;
6135;SDS011;24008;42.664;23.372;2024-02-21T04:24:39;21.63;;;13.37;;
6135;SDS011;24008;42.664;23.372;2024-02-21T04:27:05;22.10;;;13.80;;
6135;SDS011;24008;42.664;23.372;2024-02-21T04:29:32;20.13;;;13.13;;
6135;SDS011;24008;42.664;23.372;2024-02-21T04:31:59;19.97;;;12.50;;
6135;SDS011;24008;42.664;23.372;2024-02-21T04:34:27;20.20;;;12.93;;
6135;SDS011;24008;42.664;23.372;2024-02-21T04:36:54;20.47;;;13.23;;
6135;SDS011;24008;42.664;23.372;2024-02-21T04:39:21;20.20;;;13.17;;
6135;SDS011;24008;42.664;23.372;2024-02-21T04:41:49;20.23;;;13.20;;
6135;SDS011;24008;42.664;23.372;2024-02-21T04:44:15;21.13;;;13.50;;
6135;SDS011;24008;42.664;23.372;2024-02-21T04:46:42;21.27;;;13.30;;
6135;SDS011;24008;42.664;23.372;2024-02-21T04:49:09;21.57;;;14.10;;
6135;SDS011;24008;42.664;23.372;2024-02-21T04:51:35;22.03;;;14.30;;
6135;SDS011;24008;42.664;23.372;2024-02-21T04:54:02;21.60;;;13.57;;
6135;SDS011;24008;42.664;23.372;2024-02-21T04:56:29;22.03;;;13.77;;
6135;SDS011;24008;42.664;23.372;2024-02-21T04:58:57;21.37;;;13.70;;
6135;SDS011;24008;42.664;23.372;2024-02-21T05:01:24;23.53;;;14.40;;
6135;SDS011;24008;42.664;23.372;2024-02-21T05:03:51;23.27;;;14.13;;
6135;SDS011;24008;42.664;23.372;2024-02-21T05:06:18;21.00;;;13.70;;
6135;SDS011;24008;42.664;23.372;2024-02-21T05:08:45;22.70;;;14.57;;
6135;SDS011;24008;42.664;23.372;2024-02-21T05:11:11;24.30;;;14.73;;
6135;SDS011;24008;42.664;23.372;2024-02-21T05:13:38;24.83;;;15.40;;
6135;SDS011;24008;42.664;23.372;2024-02-21T05:16:06;24.40;;;14.57;;
6135;SDS011;24008;42.664;23.372;2024-02-21T05:18:33;25.13;;;15.37;;
6135;SDS011;24008;42.664;23.372;2024-02-21T05:21:00;23.97;;;14.73;;
6135;SDS011;24008;42.664;23.372;2024-02-21T05:23:27;25.47;;;14.93;;
6135;SDS011;24008;42.664;23.372;2024-02-21T05:25:54;23.00;;;14.27;;
6135;SDS011;24008;42.664;23.372;2024-02-21T05:28:20;27.63;;;15.10;;
6135;SDS011;24008;42.664;23.372;2024-02-21T05:30:47;25.57;;;16.33;;
6135;SDS011;24008;42.664;23.372;2024-02-21T05:33:15;24.33;;;14.90;;
6135;SDS011;24008;42.664;23.372;2024-02-21T05:35:46;23.80;;;14.70;;
6135;SDS011;24008;42.664;23.372;2024-02-21T05:38:12;24.93;;;14.47;;
6135;SDS011;24008;42.664;23.372;2024-02-21T05:40:39;27.03;;;15.13;;
6135;SDS011;24008;42.664;23.372;2024-02-21T05:43:06;24.47;;;16.40;;
6135;SDS011;24008;42.664;23.372;2024-02-21T05:45:33;27.13;;;17.03;;
6135;SDS011;24008;42.664;23.372;2024-02-21T05:48:00;29.47;;;17.90;;
6135;SDS011;24008;42.664;23.372;2024-02-21T05:50:29;28.87;;;17.97;;
6135;SDS011;24008;42.664;23.372;2024-02-21T05:52:55;32.27;;;18.37;;
6135;SDS011;24008;42.664;23.372;2024-02-21T05:55:22;32.63;;;19.67;;
6135;SDS011;24008;42.664;23.372;2024-02-21T05:57:49;33.47;;;20.00;;
6135;SDS011;24008;42.664;23.372;2024-02-21T06:00:16;30.97;;;19.00;;
6135;SDS011;24008;42.664;23.372;2024-02-21T06:02:43;35.40;;;20.07;;
6135;SDS011;24008;42.664;23.372;2024-02-21T06:05:09;32.47;;;19.30;;
6135;SDS011;24008;42.664;23.372;2024-02-21T06:07:38;30.90;;;18.03;;
6135;SDS011;24008;42.664;23.372;2024-02-21T06:10:06;27.63;;;16.13;;
6135;SDS011;24008;42.664;23.372;2024-02-21T06:12:34;26.90;;;16.47;;
6135;SDS011;24008;42.664;23.372;2024-02-21T06:15:00;26.67;;;17.03;;
6135;SDS011;24008;42.664;23.372;2024-02-21T06:17:28;28.50;;;16.47;;
6135;SDS011;24008;42.664;23.372;2024-02-21T06:19:54;32.07;;;17.27;;
6135;SDS011;24008;42.664;23.372;2024-02-21T06:22:21;32.40;;;17.50;;
6135;SDS011;24008;42.664;23.372;2024-02-21T06:24:49;30.33;;;16.53;;
6135;SDS011;24008;42.664;23.372;2024-02-21T06:27:16;24.83;;;15.53;;
6135;SDS011;24008;42.664;23.372;2024-02-21T06:29:43;27.83;;;17.13;;
6135;SDS011;24008;42.664;23.372;2024-02-21T06:32:09;27.67;;;16.17;;
6135;SDS011;24008;42.664;23.372;2024-02-21T06:34:36;29.90;;;17.70;;
6135;SDS011;24008;42.664;23.372;2024-02-21T06:37:03;27.27;;;17.13;;
6135;SDS011;24008;42.664;23.372;2024-02-21T06:39:29;27.60;;;16.73;;
6135;SDS011;24008;42.664;23.372;2024-02-21T06:41:57;30.83;;;17.43;;
6135;SDS011;24008;42.664;23.372;2024-02-21T06:44:24;32.30;;;18.50;;
6135;SDS011;24008;42.664;23.372;2024-02-21T06:46:52;31.80;;;19.17;;
6135;SDS011;24008;42.664;23.372;2024-02-21T06:49:19;33.23;;;19.23;;
6135;SDS011;24008;42.664;23.372;2024-02-21T06:51:46;32.27;;;19.70;;
6135;SDS011;24008;42.664;23.372;2024-02-21T06:54:13;30.43;;;18.90;;
6135;SDS011;24008;42.664;23.372;2024-02-21T06:56:40;36.40;;;20.40;;
6135;SDS011;24008;42.664;23.372;2024-02-21T06:59:08;31.70;;;18.83;;
6135;SDS011;24008;42.664;23.372;2024-02-21T07:01:35;39.13;;;20.23;;
6135;SDS011;24008;42.664;23.372;2024-02-21T07:04:02;34.30;;;19.57;;
6135;SDS011;24008;42.664;23.372;2024-02-21T07:06:29;36.13;;;20.57;;
6135;SDS011;24008;42.664;23.372;2024-02-21T07:08:56;32.90;;;19.17;;
6135;SDS011;24008;42.664;23.372;2024-02-21T07:11:23;31.53;;;19.20;;
6135;SDS011;24008;42.664;23.372;2024-02-21T07:13:50;30.70;;;17.97;;
6135;SDS011;24008;42.664;23.372;2024-02-21T07:16:18;31.37;;;19.33;;
6135;SDS011;24008;42.664;23.372;2024-02-21T07:18:45;34.13;;;19.33;;
6135;SDS011;24008;42.664;23.372;2024-02-21T07:21:11;29.83;;;18.47;;
6135;SDS011;24008;42.664;23.372;2024-02-21T07:23:40;27.57;;;16.70;;
6135;SDS011;24008;42.664;23.372;2024-02-21T07:26:07;29.17;;;16.83;;
6135;SDS011;24008;42.664;23.372;2024-02-21T07:28:34;29.93;;;17.63;;
6135;SDS011;24008;42.664;23.372;2024-02-21T07:31:00;32.13;;;18.07;;
6135;SDS011;24008;42.664;23.372;2024-02-21T07:33:28;29.40;;;16.77;;
6135;SDS011;24008;42.664;23.372;2024-02-21T07:35:56;28.23;;;16.83;;
6135;SDS011;24008;42.664;23.372;2024-02-21T07:38:22;28.40;;;16.87;;
6135;SDS011;24008;42.664;23.372;2024-02-21T07:40:49;27.40;;;15.87;;
6135;SDS011;24008;42.664;23.372;2024-02-21T07:43:16;32.30;;;18.50;;
6135;SDS011;24008;42.664;23.372;2024-02-21T07:45:43;31.27;;;17.80;;
6135;SDS011;24008;42.664;23.372;2024-02-21T07:48:09;27.97;;;16.73;;
6135;SDS011;24008;42.664;23.372;2024-02-21T07:50:37;28.67;;;16.50;;
6135;SDS011;24008;42.664;23.372;2024-02-21T07:53:04;26.67;;;15.83;;
6135;SDS011;24008;42.664;23.372;2024-02-21T07:55:31;26.30;;;16.57;;
6135;SDS011;24008;42.664;23.372;2024-02-21T07:57:58;26.40;;;16.70;;
6135;SDS011;24008;42.664;23.372;2024-02-21T08:00:24;24.80;;;16.00;;
6135;SDS011;24008;42.664;23.372;2024-02-21T08:02:51;28.07;;;17.57;;
6135;SDS011;24008;42.664;23.372;2024-02-21T08:05:18;29.50;;;16.93;;
6135;SDS011;24008;42.664;23.372;2024-02-21T08:07:46;30.37;;;16.87;;
6135;SDS011;24008;42.664;23.372;2024-02-21T08:10:14;27.27;;;17.03;;
6135;SDS011;24008;42.664;23.372;2024-02-21T08:12:41;26.23;;;16.17;;
6135;SDS011;24008;42.664;23.372;2024-02-21T08:15:08;26.23;;;16.40;;
6135;SDS011;24008;42.664;23.372;2024-02-21T08:17:35;28.03;;;17.23;;
6135;SDS011;24008;42.664;23.372;2024-02-21T08:20:02;30.17;;;18.33;;
6135;SDS011;24008;42.664;23.372;2024-02-21T08:22:29;30.50;;;16.93;;
6135;SDS011;24008;42.664;23.372;2024-02-21T08:24:58;27.95;;;18.92;;
6135;SDS011;24008;42.664;23.372;2024-02-21T08:27:24;25.63;;;17.00;;
6135;SDS011;24008;42.664;23.372;2024-02-21T08:29:51;27.87;;;17.43;;
6135;SDS011;24008;42.664;23.372;2024-02-21T08:32:18;28.23;;;16.47;;
6135;SDS011;24008;42.664;23.372;2024-02-21T08:34:44;24.00;;;15.70;;
6135;SDS011;24008;42.664;23.372;2024-02-21T08:37:11;25.30;;;16.07;;
6135;SDS011;24008;42.664;23.372;2024-02-21T08:39:38;22.80;;;15.67;;
6135;SDS011;24008;42.664;23.372;2024-02-21T08:42:06;22.67;;;14.60;;
6135;SDS011;24008;42.664;23.372;2024-02-21T08:44:33;24.83;;;15.17;;
6135;SDS011;24008;42.664;23.372;2024-02-21T08:47:00;22.53;;;14.60;;
6135;SDS011;24008;42.664;23.372;2024-02-21T08:49:28;23.17;;;15.07;;
6135;SDS011;24008;42.664;23.372;2024-02-21T08:51:56;25.20;;;14.47;;
6135;SDS011;24008;42.664;23.372;2024-02-21T08:54:23;21.20;;;13.57;;
6135;SDS011;24008;42.664;23.372;2024-02-21T08:56:49;20.20;;;14.23;;
6135;SDS011;24008;42.664;23.372;2024-02-21T08:59:17;23.40;;;15.03;;
6135;SDS011;24008;42.664;23.372;2024-02-21T09:01:44;19.00;;;13.07;;
6135;SDS011;24008;42.664;23.372;2024-02-21T09:04:11;19.77;;;13.23;;
6135;SDS011;24008;42.664;23.372;2024-02-21T09:06:37;18.97;;;12.57;;
6135;SDS011;24008;42.664;23.372;2024-02-21T09:09:07;18.63;;;13.40;;
6135;SDS011;24008;42.664;23.372;2024-02-21T09:11:35;20.33;;;14.10;;
6135;SDS011;24008;42.664;23.372;2024-02-21T09:14:01;19.00;;;14.00;;
6135;SDS011;24008;42.664;23.372;2024-02-21T09:16:30;20.43;;;13.97;;
6135;SDS011;24008;42.664;23.372;2024-02-21T09:18:57;19.63;;;12.63;;
6135;SDS011;24008;42.664;23.372;2024-02-21T09:21:24;20.67;;;14.60;;
6135;SDS011;24008;42.664;23.372;2024-02-21T09:23:51;21.40;;;13.67;;
6135;SDS011;24008;42.664;23.372;2024-02-21T09:26:17;19.60;;;12.50;;
6135;SDS011;24008;42.664;23.372;2024-02-21T09:28:44;20.07;;;13.23;;
6135;SDS011;24008;42.664;23.372;2024-02-21T09:31:11;20.00;;;12.83;;
6135;SDS011;24008;42.664;23.372;2024-02-21T09:33:39;20.70;;;14.13;;
6135;SDS011;24008;42.664;23.372;2024-02-21T09:36:06;20.53;;;13.17;;
6135;SDS011;24008;42.664;23.372;2024-02-21T09:38:33;20.77;;;14.30;;
6135;SDS011;24008;42.664;23.372;2024-02-21T09:41:00;18.90;;;13.27;;
6135;SDS011;24008;42.664;23.372;2024-02-21T09:43:37;18.57;;;13.00;;
6135;SDS011;24008;42.664;23.372;2024-02-21T09:46:06;23.43;;;14.70;;
6135;SDS011;24008;42.664;23.372;2024-02-21T09:48:44;18.80;;;13.37;;
6135;SDS011;24008;42.664;23.372;2024-02-21T09:51:22;20.17;;;13.33;;
6135;SDS011;24008;42.664;23.372;2024-02-21T09:53:50;19.53;;;14.17;;
6135;SDS011;24008;42.664;23.372;2024-02-21T09:56:19;18.80;;;13.03;;
6135;SDS011;24008;42.664;23.372;2024-02-21T09:58:46;22.10;;;14.73;;
6135;SDS011;24008;42.664;23.372;2024-02-21T10:01:13;19.67;;;14.30;;
6135;SDS011;24008;42.664;23.372;2024-02-21T10:03:43;19.63;;;14.17;;
6135;SDS011;24008;42.664;23.372;2024-02-21T10:06:09;21.07;;;14.70;;
6135;SDS011;24008;42.664;23.372;2024-02-21T10:08:36;20.73;;;13.67;;
6135;SDS011;24008;42.664;23.372;2024-02-21T10:11:03;22.13;;;14.50;;
6135;SDS011;24008;42.664;23.372;2024-02-21T10:13:30;19.27;;;12.93;;
6135;SDS011;24008;42.664;23.372;2024-02-21T10:16:00;17.80;;;12.77;;
6135;SDS011;24008;42.664;23.372;2024-02-21T10:18:28;16.77;;;12.23;;
6135;SDS011;24008;42.664;23.372;2024-02-21T10:21:06;17.00;;;12.53;;
6135;SDS011;24008;42.664;23.372;2024-02-21T10:23:41;18.33;;;12.50;;
6135;SDS011;24008;42.664;23.372;2024-02-21T10:26:09;18.37;;;12.93;;
6135;SDS011;24008;42.664;23.372;2024-02-21T10:28:36;18.13;;;12.80;;
6135;SDS011;24008;42.664;23.372;2024-02-21T10:31:03;16.27;;;12.03;;
6135;SDS011;24008;42.664;23.372;2024-02-21T10:33:30;14.37;;;10.77;;
6135;SDS011;24008;42.664;23.372;2024-02-21T10:36:07;15.13;;;10.87;;
6135;SDS011;24008;42.664;23.372;2024-02-21T10:38:35;13.80;;;9.33;;
6135;SDS011;24008;42.664;23.372;2024-02-21T10:41:03;16.27;;;10.90;;
6135;SDS011;24008;42.664;23.372;2024-02-21T10:43:32;14.30;;;9.83;;
6135;SDS011;24008;42.664;23.372;2024-02-21T10:46:04;15.10;;;9.40;;
6135;SDS011;24008;42.664;23.372;2024-02-21T10:48:33;16.13;;;10.20;;
6135;SDS011;24008;42.664;23.372;2024-02-21T10:51:11;13.63;;;9.70;;
6135;SDS011;24008;42.664;23.372;2024-02-21T10:53:44;13.27;;;9.50;;
6135;SDS011;24008;42.664;23.372;2024-02-21T10:56:16;13.43;;;10.17;;
6135;SDS011;24008;42.664;23.372;2024-02-21T10:58:49;10.50;;;8.97;;
6135;SDS011;24008;42.664;23.372;2024-02-21T11:01:17;11.33;;;9.00;;
6135;SDS011;24008;42.664;23.372;2024-02-21T11:03:45;13.90;;;9.70;;
6135;SDS011;24008;42.664;23.372;2024-02-21T11:06:15;11.50;;;8.97;;
6135;SDS011;24008;42.664;23.372;2024-02-21T11:08:43;11.30;;;9.10;;
6135;SDS011;24008;42.664;23.372;2024-02-21T11:11:12;12.17;;;9.47;;
6135;SDS011;24008;42.664;23.372;2024-02-21T11:13:42;11.90;;;9.07;;
6135;SDS011;24008;42.664;23.372;2024-02-21T11:16:11;12.53;;;9.10;;
6135;SDS011;24008;42.664;23.372;2024-02-21T11:18:47;13.73;;;9.43;;
6135;SDS011;24008;42.664;23.372;2024-02-21T11:21:15;11.40;;;8.30;;
6135;SDS011;24008;42.664;23.372;2024-02-21T11:23:41;11.23;;;8.90;;
6135;SDS011;24008;42.664;23.372;2024-02-21T11:26:10;9.93;;;8.07;;
6135;SDS011;24008;42.664;23.372;2024-02-21T11:28:56;9.60;;;7.97;;
6135;SDS011;24008;42.664;23.372;2024-02-21T11:31:25;9.50;;;7.37;;
6135;SDS011;24008;42.664;23.372;2024-02-21T11:33:53;8.53;;;6.07;;
6135;SDS011;24008;42.664;23.372;2024-02-21T11:36:25;7.97;;;5.70;;
6135;SDS011;24008;42.664;23.372;2024-02-21T11:38:52;7.20;;;5.87;;
6135;SDS011;24008;42.664;23.372;2024-02-21T11:41:19;6.87;;;5.80;;
6135;SDS011;24008;42.664;23.372;2024-02-21T11:43:46;7.97;;;5.93;;
6135;SDS011;24008;42.664;23.372;2024-02-21T11:46:15;7.10;;;5.70;;
6135;SDS011;24008;42.664;23.372;2024-02-21T11:48:42;7.93;;;6.07;;
6135;SDS011;24008;42.664;23.372;2024-02-21T11:51:20;10.47;;;5.77;;
6135;SDS011;24008;42.664;23.372;2024-02-21T11:53:51;7.40;;;6.07;;
6135;SDS011;24008;42.664;23.372;2024-02-21T11:56:19;8.73;;;6.37;;
6135;SDS011;24008;42.664;23.372;2024-02-21T11:58:45;7.27;;;5.83;;
6135;SDS011;24008;42.664;23.372;2024-02-21T12:01:12;9.27;;;6.03;;
6135;SDS011;24008;42.664;23.372;2024-02-21T12:03:39;12.80;;;7.70;;
6135;SDS011;24008;42.664;23.372;2024-02-21T12:06:06;8.70;;;6.00;;
6135;SDS011;24008;42.664;23.372;2024-02-21T12:08:42;7.60;;;5.87;;
6135;SDS011;24008;42.664;23.372;2024-02-21T12:11:20;8.40;;;6.30;;
6135;SDS011;24008;42.664;23.372;2024-02-21T12:13:57;7.73;;;6.27;;
6135;SDS011;24008;42.664;23.372;2024-02-21T12:16:25;7.87;;;6.07;;
6135;SDS011;24008;42.664;23.372;2024-02-21T12:18:53;7.57;;;5.93;;
6135;SDS011;24008;42.664;23.372;2024-02-21T12:21:23;8.20;;;5.90;;
6135;SDS011;24008;42.664;23.372;2024-02-21T12:23:50;8.53;;;6.10;;
6135;SDS011;24008;42.664;23.372;2024-02-21T12:26:17;9.00;;;6.47;;
6135;SDS011;24008;42.664;23.372;2024-02-21T12:28:45;8.33;;;6.97;;
6135;SDS011;24008;42.664;23.372;2024-02-21T12:31:12;9.53;;;6.87;;
6135;SDS011;24008;42.664;23.372;2024-02-21T12:33:39;11.13;;;7.33;;
6135;SDS011;24008;42.664;23.372;2024-02-21T12:36:06;9.63;;;7.00;;
6135;SDS011;24008;42.664;23.372;2024-02-21T12:38:33;8.17;;;6.63;;
6135;SDS011;24008;42.664;23.372;2024-02-21T12:41:00;9.47;;;6.87;;
6135;SDS011;24008;42.664;23.372;2024-02-21T12:43:27;9.13;;;6.63;;
6135;SDS011;24008;42.664;23.372;2024-02-21T12:45:55;10.47;;;7.20;;
6135;SDS011;24008;42.664;23.372;2024-02-21T12:48:22;11.70;;;7.83;;
6135;SDS011;24008;42.664;23.372;2024-02-21T12:50:49;8.83;;;6.57;;
6135;SDS011;24008;42.664;23.372;2024-02-21T12:53:17;9.00;;;6.23;;
6135;SDS011;24008;42.664;23.372;2024-02-21T12:55:44;11.40;;;7.00;;
6135;SDS011;24008;42.664;23.372;2024-02-21T12:58:11;8.43;;;6.27;;
6135;SDS011;24008;42.664;23.372;2024-02-21T13:00:39;7.63;;;6.00;;
6135;SDS011;24008;42.664;23.372;2024-02-21T13:03:07;8.70;;;6.27;;
6135;SDS011;24008;42.664;23.372;2024-02-21T13:05:34;9.00;;;7.07;;
6135;SDS011;24008;42.664;23.372;2024-02-21T13:08:02;10.53;;;7.47;;
6135;SDS011;24008;42.664;23.372;2024-02-21T13:10:29;10.63;;;7.30;;
6135;SDS011;24008;42.664;23.372;2024-02-21T13:12:56;12.33;;;8.77;;
6135;SDS011;24008;42.664;23.372;2024-02-21T13:15:22;15.83;;;9.57;;
6135;SDS011;24008;42.664;23.372;2024-02-21T13:17:49;13.47;;;9.30;;
6135;SDS011;24008;42.664;23.372;2024-02-21T13:20:17;10.50;;;8.00;;
6135;SDS011;24008;42.664;23.372;2024-02-21T13:22:44;10.43;;;7.97;;
6135;SDS011;24008;42.664;23.372;2024-02-21T13:25:10;12.10;;;8.40;;
6135;SDS011;24008;42.664;23.372;2024-02-21T13:27:40;13.57;;;8.67;;
6135;SDS011;24008;42.664;23.372;2024-02-21T13:30:08;11.97;;;8.53;;
6135;SDS011;24008;42.664;23.372;2024-02-21T13:32:36;12.07;;;9.20;;
6135;SDS011;24008;42.664;23.372;2024-02-21T13:35:03;13.47;;;9.13;;
6135;SDS011;24008;42.664;23.372;2024-02-21T13:37:33;15.37;;;9.07;;
6135;SDS011;24008;42.664;23.372;2024-02-21T13:39:59;12.40;;;9.20;;
6135;SDS011;24008;42.664;23.372;2024-02-21T13:42:27;12.80;;;9.10;;
6135;SDS011;24008;42.664;23.372;2024-02-21T13:44:55;12.30;;;9.53;;
6135;SDS011;24008;42.664;23.372;2024-02-21T13:47:21;14.20;;;9.30;;
6135;SDS011;24008;42.664;23.372;2024-02-21T13:49:48;10.53;;;8.10;;
6135;SDS011;24008;42.664;23.372;2024-02-21T13:52:15;11.27;;;8.50;;
6135;SDS011;24008;42.664;23.372;2024-02-21T13:54:43;13.20;;;8.27;;
6135;SDS011;24008;42.664;23.372;2024-02-21T13:57:10;12.43;;;8.47;;
6135;SDS011;24008;42.664;23.372;2024-02-21T13:59:39;11.37;;;8.20;;
6135;SDS011;24008;42.664;23.372;2024-02-21T14:02:07;12.07;;;7.90;;
6135;SDS011;24008;42.664;23.372;2024-02-21T14:04:34;11.13;;;8.13;;
6135;SDS011;24008;42.664;23.372;2024-02-21T14:07:01;11.37;;;8.57;;
6135;SDS011;24008;42.664;23.372;2024-02-21T14:09:28;11.67;;;7.90;;
6135;SDS011;24008;42.664;23.372;2024-02-21T14:11:57;12.33;;;8.03;;
6135;SDS011;24008;42.664;23.372;2024-02-21T14:14:24;12.30;;;8.97;;
6135;SDS011;24008;42.664;23.372;2024-02-21T14:16:50;13.27;;;8.63;;
6135;SDS011;24008;42.664;23.372;2024-02-21T14:19:17;11.17;;;8.00;;
6135;SDS011;24008;42.664;23.372;2024-02-21T14:21:44;9.10;;;7.37;;
6135;SDS011;24008;42.664;23.372;2024-02-21T14:24:11;12.33;;;7.50;;
6135;SDS011;24008;42.664;23.372;2024-02-21T14:26:38;12.27;;;7.63;;
6135;SDS011;24008;42.664;23.372;2024-02-21T14:29:07;10.63;;;8.23;;
6135;SDS011;24008;42.664;23.372;2024-02-21T14:31:34;11.83;;;7.67;;